sensor_id;sensor_type;location;lat;lon;timestamp;pressure;altitude;pressure_sealevel;temperature;humidity
71105;BME280;58760;48.716;8.962;2023-03-12T00:00:39;96102.13;;;-1.77;82.92
71105;BME280;58760;48.716;8.962;2023-03-12T00:03:05;96091.56;;;-1.87;82.92
71105;BME280;58760;48.716;8.962;2023-03-12T00:05:31;96091.88;;;-1.91;83.68
71105;BME280;58760;48.716;8.962;2023-03-12T00:07:56;96088.13;;;-1.87;84.10
71105;BME280;58760;48.716;8.962;2023-03-12T00:10:25;96093.94;;;-1.84;84.71
71105;BME280;58760;48.716;8.962;2023-03-12T00:12:51;96101.56;;;-1.93;84.63
71105;BME280;58760;48.716;8.962;2023-03-12T00:15:17;96103.22;;;-1.92;85.40
71105;BME280;58760;48.716;8.962;2023-03-12T00:17:42;96100.72;;;-1.94;85.07
71105;BME280;58760;48.716;8.962;2023-03-12T00:20:08;96104.59;;;-1.99;84.81
71105;BME280;58760;48.716;8.962;2023-03-12T00:22:34;96089.75;;;-2.10;84.82
71105;BME280;58760;48.716;8.962;2023-03-12T00:24:59;96085.59;;;-2.13;84.85
71105;BME280;58760;48.716;8.962;2023-03-12T00:27:25;96097.31;;;-2.07;85.14
71105;BME280;58760;48.716;8.962;2023-03-12T00:29:50;96096.91;;;-2.14;84.70
71105;BME280;58760;48.716;8.962;2023-03-12T00:32:16;96101.00;;;-2.22;84.77
71105;BME280;58760;48.716;8.962;2023-03-12T00:34:41;96093.50;;;-2.27;84.94
71105;BME280;58760;48.716;8.962;2023-03-12T00:37:07;96099.53;;;-2.26;85.03
71105;BME280;58760;48.716;8.962;2023-03-12T00:39:33;96090.25;;;-2.18;85.02
71105;BME280;58760;48.716;8.962;2023-03-12T00:41:59;96087.97;;;-2.09;84.74
71105;BME280;58760;48.716;8.962;2023-03-12T00:44:24;96094.06;;;-1.98;84.85
71105;BME280;58760;48.716;8.962;2023-03-12T00:46:50;96081.47;;;-1.91;84.25
71105;BME280;58760;48.716;8.962;2023-03-12T00:49:15;96089.72;;;-1.97;84.46
71105;BME280;58760;48.716;8.962;2023-03-12T00:51:41;96070.59;;;-1.96;84.61
71105;BME280;58760;48.716;8.962;2023-03-12T00:54:06;96069.75;;;-1.97;84.79
71105;BME280;58760;48.716;8.962;2023-03-12T00:56:32;96072.56;;;-2.00;84.46
71105;BME280;58760;48.716;8.962;2023-03-12T00:58:57;96075.25;;;-2.01;84.29
71105;BME280;58760;48.716;8.962;2023-03-12T01:01:23;96074.84;;;-1.95;84.15
71105;BME280;58760;48.716;8.962;2023-03-12T01:03:49;96077.94;;;-1.90;83.77
71105;BME280;58760;48.716;8.962;2023-03-12T01:06:16;96074.47;;;-1.78;83.60
71105;BME280;58760;48.716;8.962;2023-03-12T01:08:42;96073.19;;;-1.60;82.94
71105;BME280;58760;48.716;8.962;2023-03-12T01:11:12;96068.81;;;-1.60;82.17
71105;BME280;58760;48.716;8.962;2023-03-12T01:13:37;96078.09;;;-1.44;81.21
71105;BME280;58760;48.716;8.962;2023-03-12T01:16:03;96071.38;;;-1.36;80.54
71105;BME280;58760;48.716;8.962;2023-03-12T01:18:29;96072.16;;;-1.23;80.23
71105;BME280;58760;48.716;8.962;2023-03-12T01:20:54;96073.09;;;-1.24;80.09
71105;BME280;58760;48.716;8.962;2023-03-12T01:23:19;96068.22;;;-1.28;80.06
71105;BME280;58760;48.716;8.962;2023-03-12T01:25:45;96066.47;;;-1.28;80.14
71105;BME280;58760;48.716;8.962;2023-03-12T01:28:11;96071.38;;;-1.36;80.27
71105;BME280;58760;48.716;8.962;2023-03-12T01:30:37;96079.19;;;-1.36;80.34
71105;BME280;58760;48.716;8.962;2023-03-12T01:33:02;96072.34;;;-1.37;80.71
71105;BME280;58760;48.716;8.962;2023-03-12T01:35:28;96075.25;;;-1.41;80.86
71105;BME280;58760;48.716;8.962;2023-03-12T01:37:53;96084.75;;;-1.06;79.98
71105;BME280;58760;48.716;8.962;2023-03-12T01:40:21;96084.97;;;-1.09;79.13
71105;BME280;58760;48.716;8.962;2023-03-12T01:42:55;96083.59;;;-0.90;78.57
71105;BME280;58760;48.716;8.962;2023-03-12T01:48:23;96067.09;;;-1.13;78.55
71105;BME280;58760;48.716;8.962;2023-03-12T01:50:49;96070.28;;;-1.21;79.71
71105;BME280;58760;48.716;8.962;2023-03-12T01:53:15;96080.91;;;-1.24;79.85
71105;BME280;58760;48.716;8.962;2023-03-12T01:55:40;96077.34;;;-1.23;79.67
71105;BME280;58760;48.716;8.962;2023-03-12T01:58:06;96070.50;;;-1.24;79.96
71105;BME280;58760;48.716;8.962;2023-03-12T02:00:32;96080.56;;;-1.19;80.01
71105;BME280;58760;48.716;8.962;2023-03-12T02:03:00;96074.44;;;-1.18;79.65
71105;BME280;58760;48.716;8.962;2023-03-12T02:05:57;96078.25;;;-1.11;80.20
71105;BME280;58760;48.716;8.962;2023-03-12T02:08:24;96073.50;;;-1.17;80.31
71105;BME280;58760;48.716;8.962;2023-03-12T02:10:50;96074.81;;;-1.12;80.20
71105;BME280;58760;48.716;8.962;2023-03-12T02:13:16;96074.81;;;-1.12;80.46
71105;BME280;58760;48.716;8.962;2023-03-12T02:15:41;96078.84;;;-1.08;80.41
71105;BME280;58760;48.716;8.962;2023-03-12T02:18:08;96071.03;;;-1.08;80.05
71105;BME280;58760;48.716;8.962;2023-03-12T02:23:14;96071.41;;;-1.01;79.95
71105;BME280;58760;48.716;8.962;2023-03-12T02:25:45;96073.78;;;-0.98;80.29
71105;BME280;58760;48.716;8.962;2023-03-12T02:28:14;96074.03;;;-1.01;80.85
71105;BME280;58760;48.716;8.962;2023-03-12T02:30:43;96074.75;;;-0.88;80.60
71105;BME280;58760;48.716;8.962;2023-03-12T02:33:13;96072.59;;;-0.94;81.21
71105;BME280;58760;48.716;8.962;2023-03-12T02:35:42;96067.50;;;-0.95;81.63
71105;BME280;58760;48.716;8.962;2023-03-12T02:40:54;96063.38;;;-0.87;80.87
71105;BME280;58760;48.716;8.962;2023-03-12T02:43:22;96068.34;;;-0.84;81.09
71105;BME280;58760;48.716;8.962;2023-03-12T02:45:48;96066.25;;;-0.79;80.69
71105;BME280;58760;48.716;8.962;2023-03-12T02:48:13;96074.16;;;-0.80;80.37
71105;BME280;58760;48.716;8.962;2023-03-12T02:50:39;96067.09;;;-0.78;80.29
71105;BME280;58760;48.716;8.962;2023-03-12T02:53:04;96066.28;;;-0.57;79.88
71105;BME280;58760;48.716;8.962;2023-03-12T02:55:29;96064.38;;;-0.66;79.94
71105;BME280;58760;48.716;8.962;2023-03-12T02:57:55;96056.91;;;-0.70;80.17
71105;BME280;58760;48.716;8.962;2023-03-12T03:00:20;96064.50;;;-0.67;80.38
71105;BME280;58760;48.716;8.962;2023-03-12T03:02:45;96053.84;;;-0.64;80.56
71105;BME280;58760;48.716;8.962;2023-03-12T03:05:11;96051.97;;;-0.62;80.39
71105;BME280;58760;48.716;8.962;2023-03-12T03:07:37;96053.38;;;-0.58;80.30
71105;BME280;58760;48.716;8.962;2023-03-12T03:10:03;96051.59;;;-0.58;80.05
71105;BME280;58760;48.716;8.962;2023-03-12T03:12:30;96053.38;;;-0.58;80.33
71105;BME280;58760;48.716;8.962;2023-03-12T03:14:55;96047.69;;;-0.52;80.44
71105;BME280;58760;48.716;8.962;2023-03-12T03:17:21;96036.69;;;-0.44;80.07
71105;BME280;58760;48.716;8.962;2023-03-12T03:19:48;96040.25;;;-0.34;79.84
71105;BME280;58760;48.716;8.962;2023-03-12T03:22:14;96034.78;;;-0.31;79.48
71105;BME280;58760;48.716;8.962;2023-03-12T03:24:39;96040.59;;;-0.28;79.55
71105;BME280;58760;48.716;8.962;2023-03-12T03:27:04;96044.13;;;-0.29;79.53
71105;BME280;58760;48.716;8.962;2023-03-12T03:29:30;96047.72;;;-0.30;79.89
71105;BME280;58760;48.716;8.962;2023-03-12T03:31:55;96052.94;;;-0.30;79.51
71105;BME280;58760;48.716;8.962;2023-03-12T03:34:20;96047.47;;;-0.27;79.24
71105;BME280;58760;48.716;8.962;2023-03-12T03:36:46;96049.09;;;-0.26;79.60
71105;BME280;58760;48.716;8.962;2023-03-12T03:39:11;96060.97;;;-0.22;79.05
71105;BME280;58760;48.716;8.962;2023-03-12T03:41:36;96053.88;;;-0.20;79.58
71105;BME280;58760;48.716;8.962;2023-03-12T03:44:02;96042.25;;;-0.16;79.26
71105;BME280;58760;48.716;8.962;2023-03-12T03:46:29;96056.59;;;-0.10;78.99
71105;BME280;58760;48.716;8.962;2023-03-12T03:48:56;96055.03;;;-0.13;79.38
71105;BME280;58760;48.716;8.962;2023-03-12T03:51:21;96054.94;;;0.00;78.96
71105;BME280;58760;48.716;8.962;2023-03-12T03:53:47;96042.00;;;-0.02;79.13
71105;BME280;58760;48.716;8.962;2023-03-12T03:56:14;96043.19;;;0.06;78.70
71105;BME280;58760;48.716;8.962;2023-03-12T03:58:40;96040.06;;;0.12;78.43
71105;BME280;58760;48.716;8.962;2023-03-12T04:01:06;96035.34;;;0.06;78.85
71105;BME280;58760;48.716;8.962;2023-03-12T04:03:32;96029.84;;;0.20;79.36
71105;BME280;58760;48.716;8.962;2023-03-12T04:05:59;96031.53;;;0.21;79.17
71105;BME280;58760;48.716;8.962;2023-03-12T04:08:25;96030.34;;;0.14;79.56
71105;BME280;58760;48.716;8.962;2023-03-12T04:10:50;96025.34;;;0.22;79.63
71105;BME280;58760;48.716;8.962;2023-03-12T04:13:16;96036.03;;;0.19;79.57
71105;BME280;58760;48.716;8.962;2023-03-12T04:15:47;96035.78;;;0.22;79.75
71105;BME280;58760;48.716;8.962;2023-03-12T04:18:13;96034.13;;;0.32;79.45
71105;BME280;58760;48.716;8.962;2023-03-12T04:20:39;96032.00;;;0.26;79.58
71105;BME280;58760;48.716;8.962;2023-03-12T04:23:04;96042.28;;;0.27;79.52
71105;BME280;58760;48.716;8.962;2023-03-12T04:25:30;96039.56;;;0.29;79.91
71105;BME280;58760;48.716;8.962;2023-03-12T04:27:55;96042.19;;;0.29;79.77
71105;BME280;58760;48.716;8.962;2023-03-12T04:30:20;96039.78;;;0.37;79.31
71105;BME280;58760;48.716;8.962;2023-03-12T04:32:46;96044.31;;;0.35;79.26
71105;BME280;58760;48.716;8.962;2023-03-12T04:35:11;96029.56;;;0.45;79.02
71105;BME280;58760;48.716;8.962;2023-03-12T04:37:36;96034.28;;;0.51;78.96
71105;BME280;58760;48.716;8.962;2023-03-12T04:40:02;96030.00;;;0.50;78.81
71105;BME280;58760;48.716;8.962;2023-03-12T04:42:33;96035.63;;;0.45;79.04
71105;BME280;58760;48.716;8.962;2023-03-12T04:44:58;96033.81;;;0.46;79.65
71105;BME280;58760;48.716;8.962;2023-03-12T04:47:24;96033.13;;;0.44;80.29
71105;BME280;58760;48.716;8.962;2023-03-12T04:49:49;96028.59;;;0.46;80.56
71105;BME280;58760;48.716;8.962;2023-03-12T04:52:14;96025.97;;;0.46;80.67
71105;BME280;58760;48.716;8.962;2023-03-12T04:54:42;96035.97;;;0.52;80.25
71105;BME280;58760;48.716;8.962;2023-03-12T04:57:07;96036.66;;;0.54;80.36
71105;BME280;58760;48.716;8.962;2023-03-12T04:59:33;96040.69;;;0.58;80.29
71105;BME280;58760;48.716;8.962;2023-03-12T05:01:58;96026.53;;;0.61;80.41
71105;BME280;58760;48.716;8.962;2023-03-12T05:04:23;96028.06;;;0.63;80.10
71105;BME280;58760;48.716;8.962;2023-03-12T05:06:49;96023.69;;;0.64;80.13
71105;BME280;58760;48.716;8.962;2023-03-12T05:09:14;96033.97;;;0.65;80.67
71105;BME280;58760;48.716;8.962;2023-03-12T05:11:39;96031.16;;;0.68;80.47
71105;BME280;58760;48.716;8.962;2023-03-12T05:14:05;96026.25;;;0.75;80.56
71105;BME280;58760;48.716;8.962;2023-03-12T05:16:30;96019.22;;;0.75;80.30
71105;BME280;58760;48.716;8.962;2023-03-12T05:18:56;96020.19;;;0.74;81.62
71105;BME280;58760;48.716;8.962;2023-03-12T05:21:21;96021.84;;;0.75;81.38
71105;BME280;58760;48.716;8.962;2023-03-12T05:23:47;96020.78;;;0.78;81.77
71105;BME280;58760;48.716;8.962;2023-03-12T05:26:22;96028.72;;;0.76;81.78
71105;BME280;58760;48.716;8.962;2023-03-12T05:28:48;96029.88;;;0.83;81.35
71105;BME280;58760;48.716;8.962;2023-03-12T05:31:13;96029.50;;;0.88;81.01
71105;BME280;58760;48.716;8.962;2023-03-12T05:33:39;96027.72;;;0.88;81.43
71105;BME280;58760;48.716;8.962;2023-03-12T05:36:05;96032.50;;;0.83;81.13
71105;BME280;58760;48.716;8.962;2023-03-12T05:38:30;96030.13;;;0.80;82.48
71105;BME280;58760;48.716;8.962;2023-03-12T05:40:57;96021.72;;;0.77;82.24
71105;BME280;58760;48.716;8.962;2023-03-12T05:43:24;96030.38;;;0.77;81.82
71105;BME280;58760;48.716;8.962;2023-03-12T05:45:50;96023.75;;;0.73;82.10
71105;BME280;58760;48.716;8.962;2023-03-12T05:48:16;96027.56;;;0.69;82.29
71105;BME280;58760;48.716;8.962;2023-03-12T05:50:42;96026.25;;;0.75;83.00
71105;BME280;58760;48.716;8.962;2023-03-12T05:53:07;96032.84;;;0.58;82.79
71105;BME280;58760;48.716;8.962;2023-03-12T05:55:34;96035.22;;;0.61;83.49
71105;BME280;58760;48.716;8.962;2023-03-12T05:58:01;96033.72;;;0.47;83.39
71105;BME280;58760;48.716;8.962;2023-03-12T06:00:26;96037.50;;;0.43;83.63
71105;BME280;58760;48.716;8.962;2023-03-12T06:02:52;96034.13;;;0.32;83.71
71105;BME280;58760;48.716;8.962;2023-03-12T06:05:17;96029.56;;;0.45;84.96
71105;BME280;58760;48.716;8.962;2023-03-12T06:07:42;96040.19;;;0.64;85.60
71105;BME280;58760;48.716;8.962;2023-03-12T06:10:08;96034.97;;;0.64;83.92
71105;BME280;58760;48.716;8.962;2023-03-12T06:12:34;96038.75;;;0.60;83.45
71105;BME280;58760;48.716;8.962;2023-03-12T06:14:59;96044.09;;;0.59;83.45
71105;BME280;58760;48.716;8.962;2023-03-12T06:17:25;96033.75;;;0.68;84.51
71105;BME280;58760;48.716;8.962;2023-03-12T06:19:51;96033.03;;;0.66;83.86
71105;BME280;58760;48.716;8.962;2023-03-12T06:22:17;96029.31;;;0.80;82.42
71105;BME280;58760;48.716;8.962;2023-03-12T06:24:42;96032.53;;;0.72;81.83
71105;BME280;58760;48.716;8.962;2023-03-12T06:27:11;96021.97;;;0.74;81.61
71105;BME280;58760;48.716;8.962;2023-03-12T06:29:37;96021.34;;;0.81;82.79
71105;BME280;58760;48.716;8.962;2023-03-12T06:32:02;96006.25;;;0.85;83.39
71105;BME280;58760;48.716;8.962;2023-03-12T06:34:28;96015.19;;;1.03;82.67
71105;BME280;58760;48.716;8.962;2023-03-12T06:36:53;96016.34;;;1.10;83.45
71105;BME280;58760;48.716;8.962;2023-03-12T06:39:18;96009.81;;;1.25;83.92
71105;BME280;58760;48.716;8.962;2023-03-12T06:41:44;96012.47;;;1.35;83.98
71105;BME280;58760;48.716;8.962;2023-03-12T06:44:09;96017.59;;;1.36;83.85
71105;BME280;58760;48.716;8.962;2023-03-12T06:46:34;96018.13;;;1.40;84.11
71105;BME280;58760;48.716;8.962;2023-03-12T06:49:01;96014.56;;;1.41;84.02
71105;BME280;58760;48.716;8.962;2023-03-12T06:51:26;96012.69;;;1.43;84.09
71105;BME280;58760;48.716;8.962;2023-03-12T06:53:51;96019.91;;;1.60;83.46
71105;BME280;58760;48.716;8.962;2023-03-12T06:56:17;96020.41;;;1.54;84.50
71105;BME280;58760;48.716;8.962;2023-03-12T06:58:42;96018.41;;;1.67;84.65
71105;BME280;58760;48.716;8.962;2023-03-12T07:01:08;96023.22;;;1.62;84.70
71105;BME280;58760;48.716;8.962;2023-03-12T07:03:33;96027.22;;;1.66;84.35
71105;BME280;58760;48.716;8.962;2023-03-12T07:05:59;96029.81;;;1.66;84.93
71105;BME280;58760;48.716;8.962;2023-03-12T07:08:25;96031.41;;;1.78;84.44
71105;BME280;58760;48.716;8.962;2023-03-12T07:10:50;96024.25;;;1.80;83.81
71105;BME280;58760;48.716;8.962;2023-03-12T07:13:16;96027.13;;;1.77;84.02
71105;BME280;58760;48.716;8.962;2023-03-12T07:15:41;96028.53;;;1.81;84.40
71105;BME280;58760;48.716;8.962;2023-03-12T07:18:09;96028.53;;;1.81;84.96
71105;BME280;58760;48.716;8.962;2023-03-12T07:20:37;96035.97;;;1.86;84.71
71105;BME280;58760;48.716;8.962;2023-03-12T07:23:03;96038.19;;;1.90;84.74
71105;BME280;58760;48.716;8.962;2023-03-12T07:25:28;96036.25;;;1.92;85.34
71105;BME280;58760;48.716;8.962;2023-03-12T07:27:54;96049.53;;;2.00;85.30
71105;BME280;58760;48.716;8.962;2023-03-12T07:30:20;96042.91;;;1.96;85.61
71105;BME280;58760;48.716;8.962;2023-03-12T07:32:45;96038.69;;;2.15;85.91
71105;BME280;58760;48.716;8.962;2023-03-12T07:35:11;96038.75;;;2.34;84.65
71105;BME280;58760;48.716;8.962;2023-03-12T07:37:36;96040.41;;;2.44;83.59
71105;BME280;58760;48.716;8.962;2023-03-12T07:40:02;96029.13;;;2.53;83.22
71105;BME280;58760;48.716;8.962;2023-03-12T07:42:31;96028.44;;;2.80;83.28
71105;BME280;58760;48.716;8.962;2023-03-12T07:44:56;96023.75;;;3.03;81.56
71105;BME280;58760;48.716;8.962;2023-03-12T07:47:22;96028.16;;;3.02;81.47
71105;BME280;58760;48.716;8.962;2023-03-12T07:49:47;96033.94;;;3.15;81.51
71105;BME280;58760;48.716;8.962;2023-03-12T07:52:13;96020.97;;;3.14;81.89
71105;BME280;58760;48.716;8.962;2023-03-12T07:54:38;96018.75;;;3.19;81.87
71105;BME280;58760;48.716;8.962;2023-03-12T07:57:04;96022.84;;;3.50;81.59
71105;BME280;58760;48.716;8.962;2023-03-12T07:59:29;96022.59;;;3.81;80.37
71105;BME280;58760;48.716;8.962;2023-03-12T08:01:55;96017.81;;;4.03;79.67
71105;BME280;58760;48.716;8.962;2023-03-12T08:04:20;96030.38;;;4.09;80.34
71105;BME280;58760;48.716;8.962;2023-03-12T08:06:45;96023.94;;;4.21;79.84
71105;BME280;58760;48.716;8.962;2023-03-12T08:09:11;96017.66;;;4.05;80.23
71105;BME280;58760;48.716;8.962;2023-03-12T08:11:36;96027.06;;;4.07;81.03
71105;BME280;58760;48.716;8.962;2023-03-12T08:14:05;96025.97;;;4.00;81.44
71105;BME280;58760;48.716;8.962;2023-03-12T08:16:30;96032.88;;;4.01;81.68
71105;BME280;58760;48.716;8.962;2023-03-12T08:18:56;96034.03;;;3.89;82.83
71105;BME280;58760;48.716;8.962;2023-03-12T08:21:21;96046.44;;;3.97;83.29
71105;BME280;58760;48.716;8.962;2023-03-12T08:23:47;96043.66;;;3.98;83.31
71105;BME280;58760;48.716;8.962;2023-03-12T08:26:12;96048.47;;;4.12;83.83
71105;BME280;58760;48.716;8.962;2023-03-12T08:28:38;96044.00;;;4.22;83.15
71105;BME280;58760;48.716;8.962;2023-03-12T08:31:04;96042.81;;;4.35;83.63
71105;BME280;58760;48.716;8.962;2023-03-12T08:33:29;96048.72;;;4.37;84.14
71105;BME280;58760;48.716;8.962;2023-03-12T08:35:55;96044.91;;;4.76;83.03
71105;BME280;58760;48.716;8.962;2023-03-12T08:38:20;96047.91;;;4.81;83.57
71105;BME280;58760;48.716;8.962;2023-03-12T08:40:46;96049.25;;;4.85;84.51
71105;BME280;58760;48.716;8.962;2023-03-12T08:43:11;96055.19;;;4.69;84.84
71105;BME280;58760;48.716;8.962;2023-03-12T08:45:37;96048.41;;;4.67;85.54
71105;BME280;58760;48.716;8.962;2023-03-12T08:48:05;96050.56;;;4.54;86.54
71105;BME280;58760;48.716;8.962;2023-03-12T08:50:31;96047.59;;;4.39;87.71
71105;BME280;58760;48.716;8.962;2023-03-12T08:52:58;96059.09;;;4.38;88.90
71105;BME280;58760;48.716;8.962;2023-03-12T08:55:24;96052.78;;;4.31;88.95
71105;BME280;58760;48.716;8.962;2023-03-12T08:57:51;96059.72;;;4.50;88.58
71105;BME280;58760;48.716;8.962;2023-03-12T09:00:17;96052.94;;;4.74;88.12
71105;BME280;58760;48.716;8.962;2023-03-12T09:02:44;96049.09;;;4.69;88.08
71105;BME280;58760;48.716;8.962;2023-03-12T09:05:09;96054.19;;;4.88;88.67
71105;BME280;58760;48.716;8.962;2023-03-12T09:07:35;96059.09;;;4.83;88.38
71105;BME280;58760;48.716;8.962;2023-03-12T09:10:01;96053.47;;;5.13;88.15
71105;BME280;58760;48.716;8.962;2023-03-12T09:12:26;96061.28;;;5.05;87.88
71105;BME280;58760;48.716;8.962;2023-03-12T09:14:52;96051.56;;;5.23;87.13
71105;BME280;58760;48.716;8.962;2023-03-12T09:17:17;96059.84;;;5.28;87.06
71105;BME280;58760;48.716;8.962;2023-03-12T09:19:43;96053.59;;;5.30;87.62
71105;BME280;58760;48.716;8.962;2023-03-12T09:22:08;96048.47;;;5.46;87.03
71105;BME280;58760;48.716;8.962;2023-03-12T09:24:33;96062.19;;;5.57;87.07
71105;BME280;58760;48.716;8.962;2023-03-12T09:27:00;96062.78;;;5.69;86.99
71105;BME280;58760;48.716;8.962;2023-03-12T09:29:25;96061.47;;;5.73;87.06
71105;BME280;58760;48.716;8.962;2023-03-12T09:31:51;96058.66;;;5.92;87.31
71105;BME280;58760;48.716;8.962;2023-03-12T09:34:16;96062.59;;;5.88;86.34
71105;BME280;58760;48.716;8.962;2023-03-12T09:36:41;96065.59;;;5.93;86.30
71105;BME280;58760;48.716;8.962;2023-03-12T09:39:07;96071.81;;;5.92;86.90
71105;BME280;58760;48.716;8.962;2023-03-12T09:41:38;96079.78;;;6.00;87.68
71105;BME280;58760;48.716;8.962;2023-03-12T09:49:53;96070.72;;;6.28;88.73
71105;BME280;58760;48.716;8.962;2023-03-12T09:52:28;96074.09;;;6.47;89.17
71105;BME280;58760;48.716;8.962;2023-03-12T09:55:15;96073.59;;;6.51;89.59
71105;BME280;58760;48.716;8.962;2023-03-12T09:57:42;96068.91;;;6.71;90.63
71105;BME280;58760;48.716;8.962;2023-03-12T10:00:13;96076.41;;;7.08;90.07
71105;BME280;58760;48.716;8.962;2023-03-12T10:07:59;96075.13;;;7.60;88.35
71105;BME280;58760;48.716;8.962;2023-03-12T10:10:53;96076.41;;;7.80;88.76
71105;BME280;58760;48.716;8.962;2023-03-12T10:24:29;96087.66;;;8.54;88.59
71105;BME280;58760;48.716;8.962;2023-03-12T10:26:58;96089.63;;;8.60;88.63
71105;BME280;58760;48.716;8.962;2023-03-12T10:29:31;96095.09;;;8.58;88.04
71105;BME280;58760;48.716;8.962;2023-03-12T10:37:26;96107.88;;;8.38;90.55
71105;BME280;58760;48.716;8.962;2023-03-12T10:39:53;96116.81;;;8.29;89.89
71105;BME280;58760;48.716;8.962;2023-03-12T10:42:28;96109.50;;;8.48;90.49
71105;BME280;58760;48.716;8.962;2023-03-12T10:47:54;96115.94;;;8.92;88.49
71105;BME280;58760;48.716;8.962;2023-03-12T10:52:48;96117.25;;;9.50;86.96
71105;BME280;58760;48.716;8.962;2023-03-12T10:57:47;96128.78;;;9.79;84.03
71105;BME280;58760;48.716;8.962;2023-03-12T11:02:44;96124.03;;;10.12;83.24
71105;BME280;58760;48.716;8.962;2023-03-12T11:05:21;96132.34;;;10.09;81.88
71105;BME280;58760;48.716;8.962;2023-03-12T11:07:47;96128.28;;;10.21;82.89
71105;BME280;58760;48.716;8.962;2023-03-12T11:10:17;96131.91;;;10.72;82.66
71105;BME280;58760;48.716;8.962;2023-03-12T11:12:55;96133.25;;;10.54;82.98
71105;BME280;58760;48.716;8.962;2023-03-12T11:15:27;96131.59;;;10.38;83.73
71105;BME280;58760;48.716;8.962;2023-03-12T11:20:47;96141.25;;;9.93;85.65
71105;BME280;58760;48.716;8.962;2023-03-12T11:23:15;96136.94;;;9.92;87.47
71105;BME280;58760;48.716;8.962;2023-03-12T11:25:41;96148.78;;;9.82;87.23
71105;BME280;58760;48.716;8.962;2023-03-12T11:28:14;96146.63;;;9.63;87.27
71105;BME280;58760;48.716;8.962;2023-03-12T11:30:43;96147.19;;;9.95;87.08
71105;BME280;58760;48.716;8.962;2023-03-12T11:33:09;96146.81;;;9.84;87.29
71105;BME280;58760;48.716;8.962;2023-03-12T11:35:51;96137.88;;;9.85;86.96
71105;BME280;58760;48.716;8.962;2023-03-12T11:38:30;96130.06;;;10.06;87.21
71105;BME280;58760;48.716;8.962;2023-03-12T11:41:13;96138.94;;;10.13;84.77
71105;BME280;58760;48.716;8.962;2023-03-12T11:44:15;96137.19;;;10.43;84.54
71105;BME280;58760;48.716;8.962;2023-03-12T11:46:54;96128.31;;;10.50;84.22
71105;BME280;58760;48.716;8.962;2023-03-12T11:49:49;96140.31;;;10.46;83.97
71105;BME280;58760;48.716;8.962;2023-03-12T11:52:34;96133.44;;;10.67;81.90
71105;BME280;58760;48.716;8.962;2023-03-12T11:57:48;96135.69;;;10.40;80.93
71105;BME280;58760;48.716;8.962;2023-03-12T12:00:46;96133.06;;;10.40;81.35
71105;BME280;58760;48.716;8.962;2023-03-12T12:03:35;96130.69;;;10.60;79.47
71105;BME280;58760;48.716;8.962;2023-03-12T12:06:16;96122.09;;;10.87;79.74
71105;BME280;58760;48.716;8.962;2023-03-12T12:23:01;96093.56;;;14.39;65.67
71105;BME280;58760;48.716;8.962;2023-03-12T12:36:23;96060.97;;;14.95;58.97
71105;BME280;58760;48.716;8.962;2023-03-12T12:38:57;96067.69;;;13.81;61.40
71105;BME280;58760;48.716;8.962;2023-03-12T12:41:30;96068.78;;;13.13;64.45
71105;BME280;58760;48.716;8.962;2023-03-12T12:44:03;96076.09;;;12.63;66.19
71105;BME280;58760;48.716;8.962;2023-03-12T12:46:31;96076.09;;;12.29;69.28
71105;BME280;58760;48.716;8.962;2023-03-12T12:49:02;96066.81;;;12.18;69.56
71105;BME280;58760;48.716;8.962;2023-03-12T12:51:35;96081.34;;;11.94;69.82
71105;BME280;58760;48.716;8.962;2023-03-12T12:54:11;96087.88;;;11.71;71.38
71105;BME280;58760;48.716;8.962;2023-03-12T12:56:52;96083.69;;;11.40;70.89
71105;BME280;58760;48.716;8.962;2023-03-12T13:02:04;96097.50;;;10.79;75.38
71105;BME280;58760;48.716;8.962;2023-03-12T13:04:37;96097.66;;;10.77;75.55
71105;BME280;58760;48.716;8.962;2023-03-12T13:09:48;96098.59;;;11.20;75.63
71105;BME280;58760;48.716;8.962;2023-03-12T13:14:50;96105.53;;;10.85;75.70
71105;BME280;58760;48.716;8.962;2023-03-12T13:17:21;96104.38;;;11.09;76.03
71105;BME280;58760;48.716;8.962;2023-03-12T13:19:48;96100.84;;;11.02;74.18
71105;BME280;58760;48.716;8.962;2023-03-12T13:22:38;96090.09;;;11.10;75.70
71105;BME280;58760;48.716;8.962;2023-03-12T13:27:58;96105.25;;;10.95;75.55
71105;BME280;58760;48.716;8.962;2023-03-12T13:43:14;96087.78;;;13.77;64.87
71105;BME280;58760;48.716;8.962;2023-03-12T13:48:17;96079.94;;;12.95;65.90
71105;BME280;58760;48.716;8.962;2023-03-12T13:51:13;96084.13;;;14.04;61.67
71105;BME280;58760;48.716;8.962;2023-03-12T13:53:40;96084.19;;;13.30;63.93
71105;BME280;58760;48.716;8.962;2023-03-12T13:56:10;96081.09;;;13.20;62.71
71105;BME280;58760;48.716;8.962;2023-03-12T13:59:00;96083.31;;;13.10;60.79
71105;BME280;58760;48.716;8.962;2023-03-12T14:01:36;96076.50;;;13.61;61.10
71105;BME280;58760;48.716;8.962;2023-03-12T14:04:06;96077.72;;;13.05;62.46
71105;BME280;58760;48.716;8.962;2023-03-12T14:06:55;96082.16;;;12.50;64.32
71105;BME280;58760;48.716;8.962;2023-03-12T14:12:07;96103.66;;;12.21;65.90
71105;BME280;58760;48.716;8.962;2023-03-12T14:17:41;96108.88;;;11.66;70.08
71105;BME280;58760;48.716;8.962;2023-03-12T14:22:37;96102.06;;;11.78;69.75
71105;BME280;58760;48.716;8.962;2023-03-12T14:25:34;96111.06;;;12.26;67.78
71105;BME280;58760;48.716;8.962;2023-03-12T14:28:02;96102.28;;;12.59;65.91
71105;BME280;58760;48.716;8.962;2023-03-12T14:30:36;96115.03;;;13.05;64.05
71105;BME280;58760;48.716;8.962;2023-03-12T14:33:05;96118.38;;;12.45;66.17
71105;BME280;58760;48.716;8.962;2023-03-12T14:35:41;96119.81;;;12.20;67.09
71105;BME280;58760;48.716;8.962;2023-03-12T14:38:13;96114.66;;;11.69;67.78
71105;BME280;58760;48.716;8.962;2023-03-12T14:40:42;96121.97;;;12.10;67.21
71105;BME280;58760;48.716;8.962;2023-03-12T14:43:28;96103.53;;;14.83;58.15
71105;BME280;58760;48.716;8.962;2023-03-12T14:45:56;96101.16;;;14.36;58.64
71105;BME280;58760;48.716;8.962;2023-03-12T14:48:27;96102.38;;;14.27;60.03
71105;BME280;58760;48.716;8.962;2023-03-12T14:50:55;96097.03;;;15.24;57.87
71105;BME280;58760;48.716;8.962;2023-03-12T14:53:25;96082.84;;;18.63;50.03
71105;BME280;58760;48.716;8.962;2023-03-12T14:56:30;96070.34;;;19.32;45.44
71105;BME280;58760;48.716;8.962;2023-03-12T14:58:59;96062.31;;;20.88;42.87
71105;BME280;58760;48.716;8.962;2023-03-12T15:01:30;96071.97;;;19.56;43.67